Chariton, IA

10:05 PM CST on February 11, 2016 (GMT -0600)
Chariton Municipal | | Change Station
CLOSE
Current Station
Airport
Location: Chariton,
Elevation: 1050 ft
Nearby Weather Stations

Elev 1050 ft 41.02 °N, 93.36 °W | Updated 10 minutes ago

Light Snow
Light Snow
19 °F
Feels Like 12 °F
N
6
Wind Variable Wind from ESE

Today
High -- | Low -- °F
--% Chance of Precip.
Yesterday
High -- | Low -- °F
Precip. -- in
Pressure 30.24 in
Visibility 3.0 miles
Clouds Scattered Clouds 2500 ft
Mostly Cloudy 3000 ft
Overcast 5500 ft
Windchill 12 °F
Dew Point 18 °F
Humidity 93%
Rainfall 0.00 in
Snow Depth Not available.
7:13 AM 5:42 PM
Waxing Crescent, 17% visible
METAR KCNC 120355Z AUTO 11005KT 3SM -SN SCT025 BKN030 OVC055 M07/M08 A3024 RMK AO2
Pressure 30.24 in
Visibility 3.0 miles
Clouds Scattered Clouds 2500 ft
Mostly Cloudy 3000 ft
Overcast 5500 ft
Windchill 12 °F
Dew Point 18 °F
Humidity 93%
Rainfall 0.00 in
Snow Depth Not available.
7:13 AM 5:42 PM
Waxing Crescent, 17% visible
METAR KCNC 120355Z AUTO 11005KT 3SM -SN SCT025 BKN030 OVC055 M07/M08 A3024 RMK AO2

10-Day Weather Forecast

Almanac

Astronomy

Feb. 11, 2016 Rise Set
Actual Time
Civil Twilight
Nautical Twilight
Astronomical Twilight
Moon
Length of Visible Light
Length of Day
Tomorrow will be .
, % of the Moon is Illuminated

Today's Extremes

State Highs State Lows

Community

WunderPhotos

Upload Photos

1,892,254 photos uploaded!

WunderBlog® & News

Nearby

Air Quality

  Air Quality AQ Index Pollutant
Not available.

Snow Depth

Station Depth Elevation

Earthquake Activity

City Distance Mag. Time & Date
Minimum magnitude displayed is 2.5.

Coastal Water Temperatures

Place Temperature

Stations

Nearby Weather Stations

Station Location Temp. Windchill Dew Point Humidity Wind Precip. Elev Updated Type
                   

Watches & Warnings

There are currently no watches in effect.